map of POX home
Great Circle Mapper logo
POX - Airport
Location
City:  Pontoise, France
Near (Alt.):Paris
Name:Pontoise - Cormeilles en Vexin
ICAO / IATA:LFPT / POX

Details
Type:Airport (Aerodrome, Airfield)
Use:Public/Civil
Latitude:4905'48"N (49.096628)
Longitude:202'27"E (2.040722)
Elevation:325 ft (99 m)
Runways:2
Longest:5541 × 164 ft (1689 × 50 m)

Time
Time Zone:UTC+1 (DST+2)
Local Time:

Weather
METAR:LFPT 250230Z AUTO 03005KT 1400 R05///// -RA BR FEW006 13/11 Q1009

Related Locations
Nearby:
Farthest:CHT: 12058 mi / 19406 km
Waitangi [Tuuta], Chatham Islands, NZ

Find:

   beyond  
but within

Other Information
Maps:
NOTAMs:
Links:
Sources:

  
flag of France   

Sectional Chart

Flight Planning
at skyvector.com

Satellite Image

Google Maps Satellite View

 

Copyright © 2004-2014 Karl L. Swartz. All rights reserved.
The Great Circle Mapper name and logo are trademarks of the Great Circle Mapper.
All other trademarks mentioned herein belong to their respective owners.
Please see credits for attibutions and further copyright information.

  Follow gcmap on Facebook Follow gcmap on Twitter

hCard Microformat

Geo Microformat